Time;durP1;ratioP1;P1;durP2;ratioP2;P2;SDS_P1;SDS_P2;PMS_P1;PMS_P2;Temp;Humidity;BMP_temperature;BMP_pressure;BME280_temperature;BME280_humidity;BME280_pressure;Samples;Min_cycle;Max_cycle;Signal;HPM_P1;HPM_P2
2024/01/29 00:01:50;;;;;;;7.45;5.03;;;5.00;99.90;;;;;;5137890;27;20455;-71
2024/01/29 00:04:17;;;;;;;5.55;4.38;;;5.00;99.90;;;;;;5159553;27;20439;-72
2024/01/29 00:06:44;;;;;;;6.15;4.50;;;4.90;99.90;;;;;;5158901;27;20408;-72
2024/01/29 00:09:12;;;;;;;9.10;4.65;;;4.90;99.90;;;;;;5137542;27;20432;-72
2024/01/29 00:11:39;;;;;;;8.45;4.50;;;4.90;99.90;;;;;;5102594;27;20092;-72
2024/01/29 00:14:06;;;;;;;7.45;4.82;;;4.80;99.90;;;;;;5119784;27;20058;-71
2024/01/29 00:16:33;;;;;;;5.97;4.40;;;4.90;99.90;;;;;;5104429;27;20047;-72
2024/01/29 00:19:00;;;;;;;5.35;4.10;;;4.90;99.90;;;;;;5103348;27;20052;-71
2024/01/29 00:21:27;;;;;;;6.63;4.63;;;4.80;99.90;;;;;;5118695;27;20153;-71
2024/01/29 00:23:55;;;;;;;5.63;4.43;;;4.80;99.90;;;;;;5103220;27;20108;-72
2024/01/29 00:26:24;;;;;;;5.85;4.60;;;4.80;99.90;;;;;;5103942;27;20060;-72
2024/01/29 00:28:51;;;;;;;6.75;4.55;;;4.70;99.90;;;;;;5101540;27;20116;-71
2024/01/29 00:31:18;;;;;;;7.45;4.38;;;4.70;99.90;;;;;;5103611;27;20040;-72
2024/01/29 00:33:46;;;;;;;7.22;4.65;;;4.70;99.90;;;;;;5121592;27;20043;-71
2024/01/29 00:36:13;;;;;;;7.53;4.80;;;4.70;99.90;;;;;;5102681;27;20415;-71
2024/01/29 00:38:40;;;;;;;5.07;4.22;;;4.70;99.90;;;;;;5104102;27;20130;-72
2024/01/29 00:41:07;;;;;;;7.13;4.50;;;4.60;99.90;;;;;;5102628;27;20159;-70
2024/01/29 00:43:35;;;;;;;5.43;4.30;;;4.60;99.90;;;;;;5103334;27;20108;-72
2024/01/29 00:46:02;;;;;;;5.57;4.63;;;4.60;99.90;;;;;;5122873;27;20092;-71
2024/01/29 00:48:29;;;;;;;5.93;4.10;;;4.60;99.90;;;;;;5119773;27;20067;-72
2024/01/29 00:50:56;;;;;;;6.82;4.78;;;4.60;99.90;;;;;;5120641;27;20077;-72
2024/01/29 00:53:23;;;;;;;6.25;4.40;;;4.70;99.90;;;;;;5103120;27;20108;-72
2024/01/29 00:55:50;;;;;;;8.43;4.68;;;4.70;99.90;;;;;;5103449;27;20497;-71
2024/01/29 00:58:17;;;;;;;6.25;5.15;;;4.60;99.90;;;;;;5102633;27;20043;-71
2024/01/29 01:00:45;;;;;;;6.40;4.60;;;4.70;99.90;;;;;;5111641;27;20035;-71
2024/01/29 01:03:12;;;;;;;5.70;4.47;;;4.60;99.90;;;;;;5158348;27;20526;-72
2024/01/29 01:05:39;;;;;;;8.32;4.60;;;4.70;99.90;;;;;;5140510;27;20095;-72
2024/01/29 01:08:06;;;;;;;5.60;4.50;;;4.80;99.90;;;;;;5140442;27;20054;-72
2024/01/29 01:10:33;;;;;;;9.00;4.80;;;4.60;99.90;;;;;;5140127;27;20078;-72
2024/01/29 01:13:00;;;;;;;5.50;4.45;;;4.60;99.90;;;;;;5138514;27;20050;-72
2024/01/29 01:15:27;;;;;;;6.43;4.30;;;4.60;99.90;;;;;;5137341;27;20050;-72
2024/01/29 01:17:56;;;;;;;11.85;4.68;;;4.50;99.90;;;;;;5136997;27;20042;-71
2024/01/29 01:20:23;;;;;;;6.00;4.40;;;4.50;99.90;;;;;;5115154;27;20051;-71
2024/01/29 01:22:50;;;;;;;5.28;4.18;;;4.50;99.90;;;;;;5099201;27;20047;-72
2024/01/29 01:25:17;;;;;;;6.20;5.15;;;4.50;99.90;;;;;;5099266;27;20051;-71
2024/01/29 01:27:44;;;;;;;6.00;4.72;;;4.40;99.90;;;;;;5098339;27;20050;-72
2024/01/29 01:30:11;;;;;;;8.68;4.82;;;4.40;99.90;;;;;;5099540;27;20456;-72
2024/01/29 01:32:38;;;;;;;7.63;5.05;;;4.30;99.90;;;;;;5099477;27;20048;-72
2024/01/29 01:35:07;;;;;;;7.03;4.60;;;4.30;99.90;;;;;;5098829;27;20128;-72
2024/01/29 01:37:34;;;;;;;7.05;4.80;;;4.30;99.90;;;;;;5099417;27;20096;-73
2024/01/29 01:40:01;;;;;;;5.97;4.72;;;4.30;99.90;;;;;;5114821;27;20517;-73
2024/01/29 01:42:28;;;;;;;6.85;4.97;;;4.20;99.90;;;;;;5132129;27;20436;-73
2024/01/29 01:44:54;;;;;;;9.00;4.97;;;4.20;99.90;;;;;;5099391;27;20448;-72
2024/01/29 01:47:21;;;;;;;8.82;4.32;;;4.20;99.90;;;;;;5098754;27;20104;-72
2024/01/29 01:49:49;;;;;;;6.22;4.65;;;4.20;99.90;;;;;;5099577;27;20071;-73
2024/01/29 01:52:20;;;;;;;5.45;4.32;;;4.20;99.90;;;;;;5097805;27;20356;-72
2024/01/29 01:54:47;;;;;;;5.00;4.35;;;4.10;99.90;;;;;;5098429;27;20494;-73
2024/01/29 01:57:14;;;;;;;6.75;4.57;;;4.10;99.90;;;;;;5099023;27;20052;-72
2024/01/29 01:59:41;;;;;;;7.75;4.55;;;4.00;99.90;;;;;;5114190;27;20498;-73
2024/01/29 02:02:08;;;;;;;6.43;4.78;;;4.00;99.90;;;;;;5098371;27;20108;-71
2024/01/29 02:04:35;;;;;;;5.10;4.60;;;4.00;99.90;;;;;;5115865;27;20047;-73
2024/01/29 02:07:03;;;;;;;5.93;4.40;;;4.00;99.90;;;;;;5097144;27;20135;-73
2024/01/29 02:09:33;;;;;;;7.07;4.82;;;3.90;99.90;;;;;;5115701;27;20438;-73
2024/01/29 02:12:00;;;;;;;10.05;5.18;;;3.90;99.90;;;;;;5115232;27;20501;-72
2024/01/29 02:14:27;;;;;;;5.78;4.90;;;3.90;99.90;;;;;;5097221;27;20050;-72
2024/01/29 02:16:54;;;;;;;8.05;4.70;;;3.90;99.90;;;;;;5115497;27;20039;-72
2024/01/29 02:19:21;;;;;;;5.57;4.65;;;3.90;99.90;;;;;;5097850;27;20084;-73
2024/01/29 02:21:50;;;;;;;7.47;4.68;;;3.90;99.90;;;;;;5098333;27;20043;-73
2024/01/29 02:24:18;;;;;;;6.22;4.80;;;3.80;99.90;;;;;;5131556;27;20047;-73
2024/01/29 02:26:48;;;;;;;7.80;4.47;;;3.80;99.90;;;;;;5097853;27;20062;-73
2024/01/29 02:29:15;;;;;;;6.78;4.80;;;3.80;99.90;;;;;;5115078;27;20043;-72
2024/01/29 02:31:42;;;;;;;6.05;4.80;;;3.80;99.90;;;;;;5114466;27;20054;-72
2024/01/29 02:34:09;;;;;;;6.82;5.38;;;3.70;99.90;;;;;;5131569;27;20585;-73
2024/01/29 02:36:36;;;;;;;6.20;4.68;;;4.00;99.90;;;;;;5115377;27;20449;-73
2024/01/29 02:39:04;;;;;;;6.38;5.30;;;3.70;99.90;;;;;;5097628;27;20475;-72
2024/01/29 02:41:32;;;;;;;5.88;4.25;;;3.70;99.90;;;;;;5114446;27;20051;-72
2024/01/29 02:43:59;;;;;;;6.72;4.90;;;4.00;99.90;;;;;;5096748;27;20051;-72
2024/01/29 02:46:26;;;;;;;5.55;4.57;;;3.60;99.90;;;;;;5097987;27;20055;-72
2024/01/29 02:48:53;;;;;;;6.47;4.85;;;3.60;99.90;;;;;;5114378;27;20092;-73
2024/01/29 02:51:19;;;;;;;7.15;4.53;;;3.60;99.90;;;;;;5097490;27;20043;-72
2024/01/29 02:53:46;;;;;;;6.82;4.85;;;3.60;99.90;;;;;;5098756;27;20089;-72
2024/01/29 02:56:13;;;;;;;4.97;4.40;;;3.50;99.90;;;;;;5096724;27;20055;-72
2024/01/29 02:58:41;;;;;;;5.53;4.80;;;3.50;99.90;;;;;;5098197;27;20051;-72
2024/01/29 03:01:09;;;;;;;9.63;4.90;;;3.50;99.90;;;;;;5114672;27;20102;-72
2024/01/29 03:03:36;;;;;;;6.35;4.43;;;3.50;99.90;;;;;;5114319;27;20051;-72
2024/01/29 03:06:03;;;;;;;6.45;4.63;;;3.50;99.90;;;;;;5114790;27;20096;-72
2024/01/29 03:08:30;;;;;;;6.25;4.85;;;3.50;99.90;;;;;;5097709;27;20047;-71
2024/01/29 03:10:57;;;;;;;6.63;4.90;;;3.50;99.90;;;;;;5096132;27;20051;-72
2024/01/29 03:13:24;;;;;;;7.93;5.25;;;3.40;99.90;;;;;;5098024;27;20515;-72
2024/01/29 03:15:52;;;;;;;7.03;4.75;;;3.40;99.90;;;;;;5098640;27;20413;-72
2024/01/29 03:18:19;;;;;;;6.75;5.07;;;3.60;99.90;;;;;;5096675;27;20051;-73
2024/01/29 03:20:46;;;;;;;8.15;5.30;;;3.40;99.90;;;;;;5098255;27;20385;-73
2024/01/29 03:23:13;;;;;;;5.93;4.75;;;3.40;99.90;;;;;;5096072;27;20094;-73
2024/01/29 03:25:39;;;;;;;7.90;5.57;;;3.40;99.90;;;;;;5097529;27;20055;-72
2024/01/29 03:28:07;;;;;;;6.18;4.35;;;3.30;99.90;;;;;;5115139;27;20054;-72
2024/01/29 03:30:34;;;;;;;7.15;4.78;;;3.40;99.90;;;;;;5132788;27;20043;-72
2024/01/29 03:33:02;;;;;;;6.05;4.80;;;3.30;99.90;;;;;;5097993;27;20100;-72
2024/01/29 03:35:29;;;;;;;11.10;4.85;;;3.40;99.90;;;;;;5095728;27;20104;-72
2024/01/29 03:37:56;;;;;;;5.80;4.53;;;3.40;99.90;;;;;;5096583;27;20059;-73
2024/01/29 03:40:23;;;;;;;8.05;5.00;;;3.40;99.90;;;;;;5112956;27;20482;-73
2024/01/29 03:42:49;;;;;;;6.78;4.85;;;3.70;99.90;;;;;;5133610;27;20444;-72
2024/01/29 03:45:16;;;;;;;9.27;5.20;;;3.40;99.90;;;;;;5097533;27;20047;-72
2024/01/29 03:47:43;;;;;;;6.15;5.15;;;3.30;99.90;;;;;;5096637;27;20051;-72
2024/01/29 03:50:12;;;;;;;7.65;5.30;;;3.40;99.90;;;;;;5097231;27;20085;-72
2024/01/29 03:52:39;;;;;;;6.38;4.68;;;3.40;99.90;;;;;;5095311;27;20051;-72
2024/01/29 03:55:06;;;;;;;8.18;5.93;;;3.40;99.90;;;;;;5113843;27;20096;-72
2024/01/29 03:57:35;;;;;;;9.60;5.32;;;3.30;99.90;;;;;;5148958;27;20078;-72
2024/01/29 04:00:02;;;;;;;6.40;5.20;;;3.20;99.90;;;;;;5133514;27;20444;-71
2024/01/29 04:02:29;;;;;;;6.32;5.22;;;3.20;99.90;;;;;;5134181;27;20043;-72
2024/01/29 04:04:56;;;;;;;8.00;4.63;;;3.20;99.90;;;;;;5133814;27;20125;-72
2024/01/29 04:07:24;;;;;;;7.75;5.68;;;3.10;99.90;;;;;;5133262;27;20092;-73
2024/01/29 04:09:51;;;;;;;8.52;5.40;;;3.00;99.90;;;;;;5134449;27;20039;-72
2024/01/29 04:12:18;;;;;;;8.40;5.40;;;3.00;99.90;;;;;;5133800;27;20050;-72
2024/01/29 04:14:45;;;;;;;7.88;5.00;;;3.00;99.90;;;;;;5134386;27;20054;-72
2024/01/29 04:17:12;;;;;;;9.07;5.40;;;2.90;99.90;;;;;;5115853;27;20552;-71
2024/01/29 04:19:39;;;;;;;9.00;5.55;;;2.90;99.90;;;;;;5095570;27;20546;-72
2024/01/29 04:22:06;;;;;;;9.13;5.43;;;2.90;99.90;;;;;;5113401;27;20426;-72
2024/01/29 04:24:35;;;;;;;7.10;5.43;;;2.90;99.90;;;;;;5095704;27;20100;-72
2024/01/29 04:27:02;;;;;;;9.73;5.40;;;2.90;99.90;;;;;;5112906;27;20047;-72
2024/01/29 04:29:28;;;;;;;8.98;5.35;;;2.90;99.90;;;;;;5130658;28;20517;-71
2024/01/29 04:31:55;;;;;;;6.88;5.28;;;3.00;99.90;;;;;;5096435;27;20113;-72
2024/01/29 04:34:22;;;;;;;7.78;5.18;;;3.00;99.90;;;;;;5096699;27;20112;-72
2024/01/29 04:36:49;;;;;;;5.63;4.63;;;3.00;99.90;;;;;;5096103;27;20456;-72
2024/01/29 04:39:16;;;;;;;8.32;5.30;;;3.10;99.90;;;;;;5096832;27;20047;-72
2024/01/29 04:41:44;;;;;;;7.70;5.40;;;3.00;99.90;;;;;;5094748;27;20085;-72
2024/01/29 04:44:11;;;;;;;9.00;5.35;;;3.00;99.90;;;;;;5096371;27;20113;-72
2024/01/29 04:46:38;;;;;;;6.53;5.53;;;3.00;99.90;;;;;;5112396;28;20043;-72
2024/01/29 04:49:05;;;;;;;6.43;4.95;;;3.00;99.90;;;;;;5097866;27;20522;-72
2024/01/29 04:51:31;;;;;;;7.95;4.72;;;3.30;99.90;;;;;;5101214;27;20544;-72
2024/01/29 04:53:58;;;;;;;6.65;5.13;;;3.20;99.90;;;;;;5117203;27;20055;-72
2024/01/29 04:56:25;;;;;;;9.27;6.10;;;3.00;99.90;;;;;;5100046;27;20368;-72
2024/01/29 04:58:54;;;;;;;10.40;5.60;;;3.30;99.90;;;;;;5098852;27;20055;-72
2024/01/29 05:01:20;;;;;;;8.35;5.90;;;3.00;99.90;;;;;;5100802;27;20039;-72
2024/01/29 05:03:48;;;;;;;10.40;5.60;;;3.00;99.90;;;;;;5136928;27;20062;-72
2024/01/29 05:06:15;;;;;;;6.60;5.60;;;3.00;99.90;;;;;;5137023;27;20045;-72
2024/01/29 05:08:42;;;;;;;8.70;5.63;;;3.20;99.90;;;;;;5137132;27;20046;-72
2024/01/29 05:11:09;;;;;;;7.50;5.85;;;3.10;99.90;;;;;;5137063;27;20051;-72
2024/01/29 05:13:36;;;;;;;7.82;6.00;;;3.10;99.90;;;;;;5136872;27;20051;-72
2024/01/29 05:16:06;;;;;;;10.25;5.85;;;3.10;99.90;;;;;;5136563;27;20046;-72
2024/01/29 05:18:33;;;;;;;6.88;5.40;;;3.10;99.90;;;;;;5156294;27;20434;-72
2024/01/29 05:21:00;;;;;;;7.60;5.97;;;3.10;99.90;;;;;;5137447;27;20486;-72
2024/01/29 05:23:26;;;;;;;6.47;5.45;;;3.10;99.90;;;;;;5133312;27;20047;-72
2024/01/29 05:25:54;;;;;;;8.48;5.78;;;3.10;99.90;;;;;;5099221;27;20394;-72
2024/01/29 05:28:21;;;;;;;9.25;5.68;;;3.00;99.90;;;;;;5100187;27;20051;-73
2024/01/29 05:30:48;;;;;;;10.27;5.55;;;3.10;99.90;;;;;;5117462;27;20100;-72
2024/01/29 05:33:16;;;;;;;7.40;5.32;;;3.10;99.90;;;;;;5117716;27;20051;-72
2024/01/29 05:35:43;;;;;;;7.90;5.32;;;3.00;99.90;;;;;;5115631;27;20051;-73
2024/01/29 05:38:10;;;;;;;9.60;6.13;;;3.00;99.90;;;;;;5116283;27;20043;-73
2024/01/29 05:40:37;;;;;;;6.80;5.40;;;3.00;99.90;;;;;;5125601;27;20069;-73
2024/01/29 05:43:04;;;;;;;8.25;5.82;;;3.00;99.90;;;;;;5110930;27;20051;-72
2024/01/29 05:45:31;;;;;;;8.60;5.78;;;3.00;99.90;;;;;;5111088;27;20059;-72
2024/01/29 05:47:58;;;;;;;9.45;6.07;;;3.00;99.90;;;;;;5123822;27;20060;-73
2024/01/29 05:50:26;;;;;;;8.00;5.95;;;3.00;99.90;;;;;;5109105;27;20047;-73
2024/01/29 05:52:53;;;;;;;9.38;6.03;;;3.20;99.90;;;;;;5108834;27;20051;-72
2024/01/29 05:55:20;;;;;;;8.15;6.13;;;3.00;99.90;;;;;;5110998;27;20104;-72
2024/01/29 05:57:47;;;;;;;6.80;5.32;;;3.10;99.90;;;;;;5133350;27;20078;-72
2024/01/29 06:00:14;;;;;;;9.93;6.18;;;3.00;99.90;;;;;;5103371;27;20066;-73
2024/01/29 06:02:45;;;;;;;7.75;5.80;;;3.00;99.90;;;;;;5112568;27;20038;-72
2024/01/29 06:05:12;;;;;;;;;;;3.10;99.90;;;;;;5114553;27;20457;-73
2024/01/29 06:07:41;;;;;;;9.40;6.22;;;3.30;99.90;;;;;;5109480;27;19934;-73
2024/01/29 06:10:10;;;;;;;12.00;6.35;;;3.20;99.90;;;;;;5107932;27;20051;-73
2024/01/29 06:12:36;;;;;;;8.55;6.00;;;3.20;99.90;;;;;;5112655;27;20043;-73
2024/01/29 06:15:04;;;;;;;7.15;5.72;;;3.40;99.90;;;;;;5109182;27;20078;-72
2024/01/29 06:17:31;;;;;;;10.27;5.85;;;3.30;99.90;;;;;;5112142;27;20136;-69
2024/01/29 06:19:58;;;;;;;8.38;6.35;;;3.30;99.90;;;;;;5109368;27;20043;-72
2024/01/29 06:22:25;;;;;;;7.88;6.00;;;3.30;99.90;;;;;;5109544;27;20039;-71
2024/01/29 06:24:53;;;;;;;8.75;6.18;;;3.30;99.90;;;;;;5112629;27;20051;-72
2024/01/29 06:27:20;;;;;;;7.78;6.05;;;3.80;99.90;;;;;;5139339;27;20054;-72
2024/01/29 06:29:47;;;;;;;7.50;5.82;;;3.30;99.90;;;;;;5137774;27;20129;-74
2024/01/29 06:32:14;;;;;;;9.93;6.35;;;3.50;99.90;;;;;;5108347;27;20448;-72
2024/01/29 06:34:41;;;;;;;9.77;6.32;;;3.30;99.90;;;;;;5108926;27;20070;-71
2024/01/29 06:37:07;;;;;;;11.65;6.22;;;3.40;99.90;;;;;;5109784;27;20051;-73
2024/01/29 06:39:34;;;;;;;7.28;5.80;;;3.40;99.90;;;;;;5113147;27;20051;-72
2024/01/29 06:42:03;;;;;;;8.68;5.75;;;3.30;99.90;;;;;;5115144;27;20058;-73
2024/01/29 06:44:30;;;;;;;9.65;6.10;;;3.30;99.90;;;;;;5124813;27;20047;-72
2024/01/29 06:46:57;;;;;;;9.02;5.82;;;3.30;99.90;;;;;;5108151;27;20104;-72
2024/01/29 06:49:30;;;;;;;9.18;6.72;;;3.20;99.90;;;;;;5138757;27;20099;-72
2024/01/29 06:51:57;;;;;;;9.73;6.70;;;3.50;99.90;;;;;;5106498;28;20442;-70
2024/01/29 06:54:25;;;;;;;6.53;5.75;;;3.40;99.90;;;;;;5109546;27;20510;-74
2024/01/29 06:56:53;;;;;;;6.90;5.78;;;3.20;99.90;;;;;;5107085;27;20098;-74
2024/01/29 06:59:23;;;;;;;6.57;5.68;;;3.20;99.90;;;;;;5105113;27;20439;-72
2024/01/29 07:01:50;;;;;;;;;;;3.20;99.90;;;;;;5108292;27;20082;-73
2024/01/29 07:04:17;;;;;;;8.40;6.22;;;3.20;99.90;;;;;;5112779;27;19920;-72
2024/01/29 07:06:44;;;;;;;9.55;5.72;;;3.10;99.90;;;;;;5107585;27;20069;-73
2024/01/29 07:09:11;;;;;;;8.05;6.15;;;3.20;99.90;;;;;;5107915;27;20460;-73
2024/01/29 07:11:38;;;;;;;10.38;6.20;;;3.20;99.90;;;;;;5111512;27;20055;-71
2024/01/29 07:14:05;;;;;;;8.85;6.60;;;3.30;99.90;;;;;;5109099;27;20043;-72
2024/01/29 07:16:33;;;;;;;11.77;6.63;;;3.40;99.90;;;;;;5109067;27;20055;-74
2024/01/29 07:19:00;;;;;;;8.80;6.40;;;3.20;99.90;;;;;;5131370;27;20055;-73
2024/01/29 07:21:27;;;;;;;10.90;7.10;;;3.50;99.90;;;;;;5136871;27;20043;-72
2024/01/29 07:23:54;;;;;;;10.25;6.03;;;3.20;99.90;;;;;;5110454;27;20126;-72
2024/01/29 07:26:21;;;;;;;10.75;5.65;;;3.20;99.90;;;;;;5107770;27;20077;-73
2024/01/29 07:28:48;;;;;;;10.60;6.93;;;3.30;99.90;;;;;;5132077;27;20534;-73
2024/01/29 07:31:17;;;;;;;10.55;6.07;;;3.30;99.90;;;;;;5109179;27;20047;-71
2024/01/29 07:33:45;;;;;;;7.88;6.22;;;3.60;99.90;;;;;;5107993;27;20035;-73
2024/01/29 07:36:12;;;;;;;10.57;6.40;;;3.30;99.90;;;;;;5127543;27;20083;-73
2024/01/29 07:38:40;;;;;;;11.02;6.97;;;3.40;99.90;;;;;;5107251;27;20043;-72
2024/01/29 07:41:07;;;;;;;9.52;6.47;;;3.40;99.90;;;;;;5109581;27;20403;-73
2024/01/29 07:43:34;;;;;;;11.00;6.93;;;3.40;99.90;;;;;;5133045;27;20410;-73
2024/01/29 07:46:01;;;;;;;11.35;6.88;;;3.50;99.90;;;;;;5120536;27;20511;-74
2024/01/29 07:48:27;;;;;;;9.80;6.70;;;3.50;99.90;;;;;;5107828;27;20075;-73
2024/01/29 07:50:56;;;;;;;9.27;6.28;;;3.80;99.90;;;;;;5128443;27;20525;-79
2024/01/29 07:53:23;;;;;;;9.93;6.72;;;3.70;99.90;;;;;;5109601;27;20505;-82
2024/01/29 07:55:50;;;;;;;9.68;6.70;;;3.70;99.90;;;;;;5130393;27;20050;-75
2024/01/29 07:58:17;;;;;;;10.10;6.78;;;4.00;99.90;;;;;;5122881;27;21351;-74
2024/01/29 08:00:45;;;;;;;9.40;7.13;;;3.90;99.90;;;;;;5129849;27;20077;-74
2024/01/29 08:03:12;;;;;;;10.75;7.50;;;3.90;99.90;;;;;;5094994;27;20047;-76
2024/01/29 08:05:39;;;;;;;12.05;7.55;;;4.00;99.90;;;;;;5096258;27;20518;-75
2024/01/29 08:08:08;;;;;;;10.60;6.53;;;4.10;99.90;;;;;;5113930;27;20039;-75
2024/01/29 08:10:35;;;;;;;11.38;6.68;;;4.20;99.90;;;;;;5096332;27;20043;-76
2024/01/29 08:13:02;;;;;;;8.05;6.88;;;4.30;99.90;;;;;;5097424;27;20079;-76
2024/01/29 08:15:29;;;;;;;11.38;6.60;;;4.40;99.90;;;;;;5116680;27;20395;-76
2024/01/29 08:17:56;;;;;;;11.27;6.80;;;4.60;99.90;;;;;;5096642;27;20507;-75
2024/01/29 08:20:24;;;;;;;8.90;6.95;;;5.10;99.90;;;;;;5113360;27;20046;-76
2024/01/29 08:22:51;;;;;;;9.85;6.75;;;5.90;99.90;;;;;;5098482;27;20043;-76
2024/01/29 08:25:19;;;;;;;10.98;7.25;;;6.80;99.90;;;;;;5101364;27;20048;-76
2024/01/29 08:27:46;;;;;;;9.95;6.55;;;7.60;99.90;;;;;;5099072;27;20044;-77
2024/01/29 08:30:13;;;;;;;8.07;6.28;;;7.90;99.90;;;;;;5123230;27;20506;-77
2024/01/29 08:32:42;;;;;;;9.90;6.53;;;8.00;99.90;;;;;;5108145;27;20070;-76
2024/01/29 08:35:10;;;;;;;11.43;6.22;;;8.10;99.90;;;;;;5122884;27;20436;-76
2024/01/29 08:37:36;;;;;;;8.15;6.50;;;8.10;99.90;;;;;;5118298;27;20452;-76
2024/01/29 08:40:04;;;;;;;8.50;6.30;;;8.10;99.90;;;;;;5098888;27;20117;-77
2024/01/29 08:42:32;;;;;;;8.13;6.15;;;8.00;99.90;;;;;;5100419;27;20051;-76
2024/01/29 08:45:00;;;;;;;8.65;6.47;;;8.10;99.90;;;;;;5115895;27;20104;-76
2024/01/29 08:47:27;;;;;;;8.77;6.60;;;8.20;99.90;;;;;;5118297;27;20070;-77
2024/01/29 08:49:54;;;;;;;6.78;5.95;;;8.30;99.90;;;;;;5117081;27;20107;-76
2024/01/29 08:52:21;;;;;;;7.97;5.97;;;8.20;99.90;;;;;;5137371;27;20047;-76
2024/01/29 08:54:49;;;;;;;8.98;6.75;;;8.30;99.90;;;;;;5135014;27;20043;-76
2024/01/29 08:57:16;;;;;;;9.70;6.85;;;8.30;99.90;;;;;;5117752;27;20096;-76
2024/01/29 08:59:44;;;;;;;9.10;6.85;;;8.30;99.90;;;;;;5117561;27;20452;-75
2024/01/29 09:02:11;;;;;;;8.80;6.65;;;8.50;99.90;;;;;;5116757;27;20055;-75
2024/01/29 09:04:38;;;;;;;7.72;6.30;;;8.70;99.90;;;;;;5117205;27;20073;-77
2024/01/29 09:07:05;;;;;;;8.90;6.28;;;8.60;99.90;;;;;;5116853;27;20100;-76
2024/01/29 09:09:31;;;;;;;9.82;7.10;;;8.60;99.90;;;;;;5114753;27;20566;-76
2024/01/29 09:11:58;;;;;;;9.77;6.75;;;8.40;99.90;;;;;;5099520;27;20387;-75
2024/01/29 09:14:27;;;;;;;9.20;7.63;;;8.40;99.90;;;;;;5100553;27;20044;-75
2024/01/29 09:16:55;;;;;;;12.88;6.60;;;8.50;99.90;;;;;;5098718;27;20043;-75
2024/01/29 09:19:23;;;;;;;12.60;7.53;;;8.70;99.90;;;;;;5099817;27;20108;-76
2024/01/29 09:21:50;;;;;;;12.30;7.03;;;8.80;99.90;;;;;;5100430;27;20043;-75
2024/01/29 09:24:17;;;;;;;10.82;7.13;;;8.90;99.90;;;;;;5097241;27;20048;-76
2024/01/29 09:26:44;;;;;;;9.38;7.10;;;9.10;99.90;;;;;;5114446;27;20092;-76
2024/01/29 09:29:11;;;;;;;11.63;7.57;;;9.10;99.90;;;;;;5096032;27;20047;-76
2024/01/29 09:31:38;;;;;;;10.73;7.32;;;9.30;99.90;;;;;;5098312;27;20054;-75
2024/01/29 09:34:06;;;;;;;10.90;7.03;;;9.40;99.90;;;;;;5115538;27;20043;-74
2024/01/29 09:36:35;;;;;;;9.55;7.30;;;9.30;99.90;;;;;;5096829;27;20407;-74
2024/01/29 09:39:02;;;;;;;9.35;6.82;;;9.50;99.90;;;;;;5098028;27;20063;-76
2024/01/29 09:41:34;;;;;;;14.80;7.90;;;9.80;99.90;;;;;;5115495;27;20054;-75
2024/01/29 09:44:05;;;;;;;12.05;7.50;;;9.90;99.90;;;;;;5115747;27;20058;-74
2024/01/29 09:46:32;;;;;;;10.93;6.90;;;10.20;99.90;;;;;;5098957;27;20742;-75
2024/01/29 09:48:59;;;;;;;12.90;7.38;;;10.30;99.90;;;;;;5135199;27;20107;-75
2024/01/29 09:51:28;;;;;;;9.80;6.93;;;10.10;99.90;;;;;;5136097;27;20051;-75
2024/01/29 09:53:56;;;;;;;9.75;7.00;;;10.40;99.90;;;;;;5136423;27;20079;-75
2024/01/29 09:56:23;;;;;;;12.85;7.38;;;10.50;99.90;;;;;;5136635;27;20443;-76
2024/01/29 09:58:50;;;;;;;11.07;7.38;;;10.40;99.90;;;;;;5135532;27;20069;-77
2024/01/29 10:01:18;;;;;;;9.60;6.82;;;10.40;99.90;;;;;;5135962;27;20043;-75
2024/01/29 10:03:45;;;;;;;9.75;7.40;;;10.10;99.90;;;;;;5136177;27;20035;-75
2024/01/29 10:06:12;;;;;;;11.10;7.50;;;9.70;99.90;;;;;;5154206;27;20554;-75
2024/01/29 10:08:41;;;;;;;8.65;7.10;;;9.40;99.90;;;;;;5132936;27;20039;-75
2024/01/29 10:11:08;;;;;;;9.63;7.75;;;9.30;99.90;;;;;;5116948;27;20089;-76
2024/01/29 10:13:35;;;;;;;9.40;7.80;;;9.10;99.90;;;;;;5098766;27;20047;-76
2024/01/29 10:16:02;;;;;;;10.20;7.45;;;9.00;99.90;;;;;;5114521;27;20055;-76
2024/01/29 10:18:30;;;;;;;10.45;7.53;;;8.80;99.90;;;;;;5116201;27;20043;-75
2024/01/29 10:21:01;;;;;;;12.52;8.10;;;8.70;99.90;;;;;;5117130;27;20551;-75
2024/01/29 10:23:28;;;;;;;11.35;8.05;;;8.50;99.90;;;;;;5114563;27;20099;-76
2024/01/29 10:25:57;;;;;;;9.07;7.70;;;8.30;99.90;;;;;;5097847;27;20509;-75
2024/01/29 10:28:26;;;;;;;12.13;7.65;;;8.20;99.90;;;;;;5098909;27;20052;-76
2024/01/29 10:30:53;;;;;;;10.57;8.20;;;8.20;99.90;;;;;;5133281;27;20043;-76
2024/01/29 10:33:21;;;;;;;11.02;8.43;;;8.30;99.90;;;;;;5097530;27;20059;-75
2024/01/29 10:35:49;;;;;;;11.30;7.85;;;8.40;99.90;;;;;;5115729;27;20047;-75
2024/01/29 10:38:19;;;;;;;11.52;8.32;;;8.40;99.90;;;;;;5116395;27;20056;-76
2024/01/29 10:40:46;;;;;;;11.35;8.20;;;8.50;99.90;;;;;;5097525;27;20039;-76
2024/01/29 10:43:19;;;;;;;12.93;8.45;;;8.60;99.90;;;;;;5099088;27;20093;-76
2024/01/29 10:45:48;;;;;;;10.63;8.07;;;8.70;99.90;;;;;;5114379;27;20051;-76
2024/01/29 10:48:20;;;;;;;22.50;8.75;;;8.70;99.90;;;;;;5098972;27;20082;-76
2024/01/29 10:50:48;;;;;;;16.45;8.57;;;8.70;99.90;;;;;;5099735;27;20055;-76
2024/01/29 10:53:16;;;;;;;22.10;9.52;;;8.80;99.90;;;;;;5097999;27;20139;-75
2024/01/29 10:55:44;;;;;;;13.60;9.10;;;8.70;99.90;;;;;;5097897;27;20047;-75
2024/01/29 10:58:13;;;;;;;14.05;8.60;;;8.50;99.90;;;;;;5116503;27;20047;-73
2024/01/29 11:00:43;;;;;;;12.13;8.95;;;8.40;99.90;;;;;;5115572;27;20055;-75
2024/01/29 11:03:12;;;;;;;14.80;8.48;;;8.40;99.90;;;;;;5098081;27;20044;-76
2024/01/29 11:05:40;;;;;;;20.77;9.48;;;8.30;99.90;;;;;;5114080;27;20501;-75
2024/01/29 11:08:11;;;;;;;12.95;9.35;;;8.30;99.90;;;;;;5116196;27;20111;-77
2024/01/29 11:10:38;;;;;;;10.88;9.00;;;8.40;99.90;;;;;;5153778;27;20112;-76
2024/01/29 11:13:08;;;;;;;15.35;9.60;;;8.30;99.90;;;;;;5153879;27;20050;-77
2024/01/29 11:15:35;;;;;;;13.32;9.75;;;8.30;99.90;;;;;;5134537;27;20550;-76
2024/01/29 11:18:04;;;;;;;13.73;9.80;;;8.30;99.90;;;;;;5135631;27;20436;-76
2024/01/29 11:20:32;;;;;;;16.38;9.95;;;8.20;99.90;;;;;;5114320;27;20387;-75
2024/01/29 11:23:02;;;;;;;13.90;9.43;;;8.30;99.90;;;;;;5096442;27;20051;-75
2024/01/29 11:25:30;;;;;;;13.27;9.70;;;8.30;99.90;;;;;;5097415;27;20052;-76
2024/01/29 11:27:57;;;;;;;14.70;9.75;;;8.40;99.90;;;;;;5098276;27;20051;-76
2024/01/29 11:30:25;;;;;;;16.65;10.40;;;8.30;99.90;;;;;;5096150;27;20491;-76
2024/01/29 11:32:53;;;;;;;13.95;9.95;;;8.30;99.90;;;;;;5097532;27;20105;-76
2024/01/29 11:35:24;;;;;;;13.45;9.65;;;8.30;99.90;;;;;;5113239;27;20486;-75
2024/01/29 11:37:51;;;;;;;16.80;9.85;;;8.30;99.90;;;;;;5096233;27;20050;-75
2024/01/29 11:40:38;;;;;;;20.27;9.98;;;8.30;99.90;;;;;;5129215;27;20094;-75
2024/01/29 11:43:11;;;;;;;16.60;10.38;;;8.30;99.90;;;;;;5134769;27;20050;-75
2024/01/29 11:45:38;;;;;;;17.23;10.18;;;8.40;99.90;;;;;;5111750;27;20047;-74
2024/01/29 11:48:10;;;;;;;16.70;9.82;;;8.50;99.90;;;;;;5096862;27;20051;-76
2024/01/29 11:50:39;;;;;;;16.08;10.68;;;8.50;99.90;;;;;;5112318;27;20100;-76
2024/01/29 11:53:09;;;;;;;16.33;10.68;;;8.50;99.90;;;;;;5100466;27;20059;-75
2024/01/29 11:55:36;;;;;;;13.90;9.40;;;8.60;99.90;;;;;;5123640;27;20441;-76
2024/01/29 11:58:03;;;;;;;16.60;9.50;;;8.60;99.90;;;;;;5094545;27;20047;-76
2024/01/29 12:00:30;;;;;;;16.73;10.60;;;8.80;99.90;;;;;;5122504;27;20133;-76
2024/01/29 12:02:57;;;;;;;16.25;9.80;;;9.00;99.90;;;;;;5109658;27;20056;-75
2024/01/29 12:05:24;;;;;;;20.00;11.02;;;9.30;99.90;;;;;;5113289;28;20039;-75
2024/01/29 12:07:53;;;;;;;17.67;10.90;;;9.10;99.90;;;;;;5104803;27;20483;-75
2024/01/29 12:10:20;;;;;;;16.98;11.57;;;9.20;99.90;;;;;;5126453;27;20045;-77
2024/01/29 12:12:47;;;;;;;18.05;11.25;;;9.10;99.90;;;;;;5128984;27;20039;-77
2024/01/29 12:15:16;;;;;;;21.13;11.77;;;9.10;99.90;;;;;;5111430;28;20047;-74
2024/01/29 12:17:47;;;;;;;20.33;11.38;;;9.00;99.90;;;;;;5110401;27;20043;-76
2024/01/29 12:20:14;;;;;;;22.67;12.98;;;8.90;99.90;;;;;;5109901;28;20092;-76
2024/01/29 12:22:42;;;;;;;20.27;13.45;;;8.80;99.90;;;;;;5109518;28;20043;-75
2024/01/29 12:25:12;;;;;;;21.70;12.45;;;8.70;99.90;;;;;;5109446;27;20064;-76
2024/01/29 12:27:40;;;;;;;19.67;12.45;;;8.60;99.90;;;;;;5109127;27;20100;-76
2024/01/29 12:30:10;;;;;;;19.73;12.35;;;8.60;99.90;;;;;;5109581;28;20131;-76
2024/01/29 12:32:39;;;;;;;;;;;8.70;99.90;;;;;;5111532;28;20107;-76
2024/01/29 12:35:24;;;;;;;21.10;12.52;;;8.70;99.90;;;;;;5096086;27;19920;-76
2024/01/29 12:37:51;;;;;;;23.63;12.70;;;8.60;99.90;;;;;;5112224;28;20475;-77
2024/01/29 12:40:19;;;;;;;21.40;11.57;;;8.60;99.90;;;;;;5112713;28;20078;-76
2024/01/29 12:42:46;;;;;;;21.90;12.40;;;8.60;99.90;;;;;;5119236;27;20470;-76
2024/01/29 12:45:17;;;;;;;21.17;13.27;;;8.60;99.90;;;;;;5133600;27;20047;-76
2024/01/29 12:47:44;;;;;;;22.63;14.27;;;8.50;99.90;;;;;;5132936;27;20047;-76
2024/01/29 12:50:15;;;;;;;20.05;12.98;;;8.50;99.90;;;;;;5133105;27;20043;-76
2024/01/29 12:52:43;;;;;;;23.10;13.73;;;8.60;99.90;;;;;;5132778;27;20439;-76
2024/01/29 12:55:10;;;;;;;28.02;13.23;;;8.60;99.90;;;;;;5133042;27;20053;-76